Time;durP1;ratioP1;P1;durP2;ratioP2;P2;SDS_P1;SDS_P2;PMS_P1;PMS_P2;Temp;Humidity;BMP_temperature;BMP_pressure;BME280_temperature;BME280_humidity;BME280_pressure;Samples;Min_cycle;Max_cycle;Signal;HPM_P1;HPM_P2
2022/06/24 00:00:56;;;;;;;22.50;20.37;;;;;;;;;;2090745;28;20434;-76
2022/06/24 00:01:57;;;;;;;22.33;20.30;;;;;;;;;;2091116;28;20183;-76
2022/06/24 00:02:58;;;;;;;22.57;20.67;;;;;;;14.64;nan;99071.28;2091222;28;20918;-76
2022/06/24 00:03:59;;;;;;;23.20;20.37;;;;;;;;;;2091087;28;20448;-76
2022/06/24 00:05:08;;;;;;;22.57;20.67;;;;;;;14.58;nan;99104.78;2091108;28;20443;-76
2022/06/24 00:06:13;;;;;;;22.27;20.33;;;;;;;14.59;nan;99078.72;2098404;28;20437;-76
2022/06/24 00:07:15;;;;;;;23.30;21.10;;;;;;;14.53;nan;99107.66;2098356;28;20405;-76
2022/06/24 00:08:16;;;;;;;22.20;20.20;;;;;;;14.53;nan;99074.66;2091226;28;20469;-76
2022/06/24 00:09:18;;;;;;;24.17;20.87;;;;;;;14.52;nan;99073.06;2090438;28;20434;-76
2022/06/24 00:10:23;;;;;;;22.83;20.50;;;;;;;14.48;nan;99067.53;2090480;28;20250;-76
2022/06/24 00:11:29;;;;;;;22.83;20.80;;;;;;;14.47;nan;99071.34;2091371;28;20453;-76
2022/06/24 00:12:30;;;;;;;21.90;20.03;;;;;;;14.46;nan;99075.13;2091293;28;20448;-77
2022/06/24 00:13:39;;;;;;;22.97;20.90;;;;;;;14.45;nan;99078.13;2098587;28;20440;-76
2022/06/24 00:14:41;;;;;;;24.33;21.23;;;;;;;14.42;nan;99063.41;2097847;28;20649;-76
2022/06/24 00:15:42;;;;;;;25.73;21.73;;;;;;;14.37;nan;99067.06;2091228;28;20429;-76
2022/06/24 00:16:56;;;;;;;22.40;20.27;;;;;;;;;;2091021;28;20430;-77
2022/06/24 00:18:01;;;;;;;24.57;21.07;;;;;;;14.34;nan;99066.94;2090896;28;20472;-76
2022/06/24 00:19:09;;;;;;;22.80;21.00;;;;;;;;;;2090970;28;20433;-76
2022/06/24 00:20:17;;;;;;;23.10;20.70;;;;;;;14.29;nan;99075.94;2098571;28;20424;-77
2022/06/24 00:21:18;;;;;;;22.97;20.77;;;;;;;14.29;nan;99065.19;2097148;28;20460;-76
2022/06/24 00:22:20;;;;;;;23.07;20.73;;;;;;;14.29;nan;99069.78;2090734;28;20441;-77
2022/06/24 00:23:21;;;;;;;23.77;20.87;;;;;;;;;;2098794;28;20511;-76
2022/06/24 00:24:23;;;;;;;22.93;20.73;;;;;;;14.24;nan;99051.16;2098480;28;20996;-77
2022/06/24 00:25:27;;;;;;;22.43;20.10;;;;;;;14.23;nan;99034.28;2090321;28;20440;-77
2022/06/24 00:26:38;;;;;;;22.77;20.77;;;;;;;14.25;nan;98951.56;2098095;28;20448;-77
2022/06/24 00:27:40;;;;;;;23.20;20.93;;;;;;;;;;2090624;28;20433;-77
2022/06/24 00:28:40;;;;;;;23.47;21.00;;;;;;;;;;2082084;28;20446;-76
2022/06/24 00:29:42;;;;;;;22.13;20.33;;;;;;;;;;2082516;28;20470;-76
2022/06/24 00:30:45;;;;;;;22.33;20.27;;;;;;;;;;2090204;28;20207;-76
2022/06/24 00:31:59;;;;;;;22.87;20.70;;;;;;;;;;2090556;28;20441;-77
2022/06/24 00:33:11;;;;;;;21.97;19.83;;;;;;;;;;2083726;28;20445;-77
2022/06/24 00:34:22;;;;;;;25.10;20.83;;;;;;;;;;2083571;28;20442;-76
2022/06/24 00:35:23;;;;;;;23.20;20.57;;;;;;;;;;2083679;28;20438;-76
2022/06/24 00:36:24;;;;;;;22.15;20.05;;;;;;;;;;2089804;28;20445;-77
2022/06/24 00:37:26;;;;;;;22.43;20.20;;;;;;;;;;2090764;28;20198;-77
2022/06/24 00:38:28;;;;;;;21.80;19.90;;;;;;;;;;2090380;28;20536;-76
2022/06/24 00:39:35;;;;;;;22.47;20.20;;;;;;;;;;2090838;28;20191;-76
2022/06/24 00:40:39;;;;;;;22.10;20.00;;;;;;;;;;2099597;28;20496;-76
2022/06/24 00:41:40;;;;;;;22.53;20.33;;;;;;;;;;2098258;28;20492;-76
2022/06/24 00:42:43;;;;;;;22.50;20.23;;;;;;;;;;2090096;28;20857;-77
2022/06/24 00:43:46;;;;;;;23.10;20.70;;;;;;;14.03;nan;98917.72;2090318;28;20563;-77
2022/06/24 00:44:49;;;;;;;22.85;20.60;;;;;;;;;;2082121;28;20862;-77
2022/06/24 00:45:53;;;;;;;23.23;20.90;;;;;;;;;;2082127;28;20234;-77
2022/06/24 00:46:57;;;;;;;23.10;20.60;;;;;;;;;;2090295;28;20457;-76
2022/06/24 00:48:00;;;;;;;23.87;21.33;;;;;;;;;;2090665;28;20588;-77
2022/06/24 00:49:01;;;;;;;22.20;19.98;;;;;;;;;;2089959;28;20819;-76
2022/06/24 00:50:04;;;;;;;22.30;20.20;;;;;;;;;;2090030;28;20234;-76
2022/06/24 00:51:07;;;;;;;22.27;19.93;;;;;;;;;;2089532;28;20436;-76
2022/06/24 00:52:10;;;;;;;22.23;20.33;;;;;;;;;;2098339;28;20432;-77
2022/06/24 00:53:12;;;;;;;22.13;19.85;;;;;;;;;;2098265;28;20827;-77
2022/06/24 00:54:15;;;;;;;22.43;20.50;;;;;;;;;;2098219;28;20716;-76
2022/06/24 00:55:18;;;;;;;22.07;20.07;;;;;;;;;;2089955;28;20457;-77
2022/06/24 00:56:21;;;;;;;22.13;20.13;;;;;;;;;;2090177;28;20939;-76
2022/06/24 00:57:22;;;;;;;22.27;20.15;;;;;;;;;;2090226;28;20436;-76
2022/06/24 00:58:24;;;;;;;22.77;20.50;;;;;;;;;;2098743;28;20312;-77
2022/06/24 00:59:25;;;;;;;22.08;19.90;;;;;;;;;;2097976;28;20209;-76
2022/06/24 01:00:29;;;;;;;21.93;19.67;;;;;;;;;;2090287;28;20199;-76
2022/06/24 01:01:31;;;;;;;21.98;19.20;;;;;;;;;;2098503;28;20640;-77
2022/06/24 01:02:33;;;;;;;21.33;19.52;;;;;;;;;;2089978;28;20209;-76
2022/06/24 01:03:37;;;;;;;22.37;20.03;;;;;;;;;;2090528;28;20191;-76
2022/06/24 01:04:39;;;;;;;22.27;20.00;;;;;;;;;;2089554;28;20821;-76
2022/06/24 01:05:40;;;;;;;22.17;19.80;;;;;;;;;;2089939;28;20489;-76
2022/06/24 01:06:44;;;;;;;21.57;19.67;;;;;;;;;;2081911;28;20454;-76
2022/06/24 01:07:45;;;;;;;23.13;20.83;;;;;;;;;;2082310;28;20446;-77
2022/06/24 01:08:47;;;;;;;26.60;20.75;;;;;;;;;;2090795;28;20432;-77
2022/06/24 01:09:48;;;;;;;22.30;20.17;;;;;;;;;;2098204;28;20221;-76
2022/06/24 01:10:49;;;;;;;24.40;20.30;;;;;;;;;;2089896;28;20936;-76
2022/06/24 01:11:52;;;;;;;23.38;20.10;;;;;;;;;;2090494;28;20199;-76
2022/06/24 01:12:54;;;;;;;22.38;20.38;;;;;;;;;;2081847;28;20222;-76
2022/06/24 01:13:56;;;;;;;22.08;20.05;;;;;;;;;;2081660;28;20199;-76
2022/06/24 01:14:58;;;;;;;22.80;20.65;;;;;;;;;;2081735;28;20195;-76
2022/06/24 01:15:58;;;;;;;21.92;20.10;;;;;;;;;;2081905;28;20206;-76
2022/06/24 01:17:00;;;;;;;22.47;20.10;;;;;;;;;;2089968;28;20191;-76
2022/06/24 01:18:00;;;;;;;22.92;20.52;;;;;;;;;;2090022;28;20662;-76
2022/06/24 01:19:02;;;;;;;23.40;21.17;;;;;;;;;;2081880;28;20204;-77
2022/06/24 01:20:04;;;;;;;23.45;21.40;;;;;;;;;;2081694;28;20553;-76
2022/06/24 01:21:07;;;;;;;22.77;20.67;;;;;;;;;;2089431;28;20646;-76
2022/06/24 01:22:11;;;;;;;22.13;20.02;;;;;;;;;;2090781;28;20687;-77
2022/06/24 01:23:13;;;;;;;22.50;20.40;;;;;;;;;;2090486;28;20187;-77
2022/06/24 01:24:15;;;;;;;24.20;21.83;;;;;;;;;;2090687;28;20672;-76
2022/06/24 01:25:17;;;;;;;23.00;20.67;;;;;;;;;;2090697;28;20191;-77
2022/06/24 01:26:18;;;;;;;24.13;21.67;;;;;;;;;;2098099;28;20221;-77
2022/06/24 01:27:20;;;;;;;22.48;20.30;;;;;;;;;;2099113;28;20232;-77
2022/06/24 01:28:23;;;;;;;22.35;20.15;;;;;;;;;;2089840;28;20195;-77
2022/06/24 01:29:25;;;;;;;23.67;21.20;;;;;;;;;;2089787;28;20194;-77
2022/06/24 01:30:26;;;;;;;22.60;20.30;;;;;;;;;;2090452;28;20195;-76
2022/06/24 01:31:27;;;;;;;23.80;21.33;;;;;;;;;;2089772;28;20638;-77
2022/06/24 01:32:28;;;;;;;31.83;22.30;;;;;;;;;;2081975;28;20223;-77
2022/06/24 01:33:30;;;;;;;22.73;20.73;;;;;;;;;;2081505;28;20206;-76
2022/06/24 01:34:31;;;;;;;22.73;20.63;;;;;;;;;;2081562;28;20298;-76
2022/06/24 01:35:35;;;;;;;27.17;21.65;;;;;;;;;;2090444;28;20183;-76
2022/06/24 01:36:36;;;;;;;23.98;21.77;;;;;;;;;;2097726;28;20222;-76
2022/06/24 01:37:38;;;;;;;23.47;21.00;;;;;;;;;;2090261;28;20762;-77
2022/06/24 01:38:39;;;;;;;23.40;20.98;;;;;;;;;;2090119;28;20218;-76
2022/06/24 01:39:41;;;;;;;23.93;21.30;;;;;;;;;;2081539;28;20267;-76
2022/06/24 01:40:42;;;;;;;23.67;21.40;;;;;;;;;;2082194;28;20202;-76
2022/06/24 01:41:45;;;;;;;22.80;20.80;;;;;;;;;;2089890;28;20587;-77
2022/06/24 01:42:47;;;;;;;24.88;21.13;;;;;;;;;;2097896;28;20190;-77
2022/06/24 01:43:48;;;;;;;24.50;22.10;;;;;;;;;;2098278;28;20202;-76
2022/06/24 01:44:49;;;;;;;26.20;21.03;;;;;;;;;;2089758;28;20285;-77
2022/06/24 01:45:50;;;;;;;24.30;21.77;;;;;;;;;;2089733;28;20657;-77
2022/06/24 01:46:51;;;;;;;27.87;21.73;;;;;;;;;;2098166;28;20620;-77
2022/06/24 01:47:52;;;;;;;23.48;21.05;;;;;;;;;;2090383;28;20199;-77
2022/06/24 01:48:54;;;;;;;24.83;22.10;;;;;;;;;;2089708;28;20187;-76
2022/06/24 01:49:56;;;;;;;24.75;22.15;;;;;;;;;;2081461;28;20195;-77
2022/06/24 01:50:58;;;;;;;24.92;21.95;;;;;;;;;;2089222;28;20696;-77
2022/06/24 01:52:00;;;;;;;25.88;22.13;;;;;;;;;;2098018;28;20201;-76
2022/06/24 01:53:02;;;;;;;24.75;21.92;;;;;;;;;;2089997;28;20290;-76
2022/06/24 01:54:03;;;;;;;24.23;21.75;;;;;;;;;;2089780;28;20187;-76
2022/06/24 01:55:05;;;;;;;24.27;21.70;;;;;;;;;;2089650;28;20246;-76
2022/06/24 01:56:07;;;;;;;25.73;21.25;;;;;;;;;;2089788;28;20194;-76
2022/06/24 01:57:07;;;;;;;22.92;20.73;;;;;;;;;;2097895;28;20233;-77
2022/06/24 01:58:09;;;;;;;25.00;22.57;;;;;;;;;;2098181;28;20198;-76
2022/06/24 01:59:10;;;;;;;23.75;21.42;;;;;;;;;;2090253;28;20253;-76
2022/06/24 02:00:11;;;;;;;23.27;21.07;;;;;;;;;;2090328;28;20191;-77
2022/06/24 02:01:13;;;;;;;24.17;21.35;;;;;;;;;;2090840;28;20191;-77
2022/06/24 02:02:16;;;;;;;23.60;21.20;;;;;;;;;;2090456;28;20194;-77
2022/06/24 02:03:19;;;;;;;22.85;20.65;;;;;;;;;;2090330;28;20274;-77
2022/06/24 02:04:20;;;;;;;24.02;21.83;;;;;;;;;;2091036;28;20210;-77
2022/06/24 02:05:24;;;;;;;23.73;21.23;;;;;;;;;;2089636;28;20205;-76
2022/06/24 02:06:26;;;;;;;23.92;21.30;;;;;;;;;;2089821;28;20306;-76
2022/06/24 02:07:26;;;;;;;23.98;21.40;;;;;;;;;;2089588;28;20294;-77
2022/06/24 02:08:30;;;;;;;24.17;21.60;;;;;;;;;;2081415;28;20191;-76
2022/06/24 02:13:26;;;;;;;23.05;20.60;;;;;;;;;;2082306;28;20257;-76
2022/06/24 02:13:31;;;;;;;24.08;21.83;;;;;;;;;;2095562;28;20193;-76
2022/06/24 02:14:31;;;;;;;24.23;21.88;;;;;;;;;;2090219;28;20245;-77
2022/06/24 02:15:33;;;;;;;26.73;22.10;;;;;;;;;;2090440;28;20241;-76
2022/06/24 02:16:34;;;;;;;24.52;22.15;;;;;;;;;;2091248;28;20199;-77
2022/06/24 02:17:37;;;;;;;23.95;21.58;;;;;;;;;;2091848;28;20210;-77
2022/06/24 02:18:38;;;;;;;25.23;20.90;;;;;;;;;;2091144;28;20262;-76
2022/06/24 02:19:39;;;;;;;23.63;21.40;;;;;;;;;;2091673;28;20206;-76
2022/06/24 02:20:40;;;;;;;23.85;21.58;;;;;;;;;;2091200;28;20290;-76
2022/06/24 02:21:41;;;;;;;23.00;20.83;;;;;;;;;;2091051;28;20222;-76
2022/06/24 02:22:42;;;;;;;24.77;22.27;;;;;;;;;;2099965;28;20194;-76
2022/06/24 02:23:46;;;;;;;23.30;21.10;;;;;;;;;;2091585;28;20294;-76
2022/06/24 02:24:46;;;;;;;22.83;20.73;;;;;;;;;;2091700;28;20202;-76
2022/06/24 02:25:48;;;;;;;23.30;20.93;;;;;;;;;;2091298;28;20206;-77
2022/06/24 02:26:49;;;;;;;28.08;21.58;;;;;;;;;;2091169;28;20266;-76
2022/06/24 02:27:50;;;;;;;23.90;21.60;;;;;;;;;;2083413;28;20210;-76
2022/06/24 02:28:51;;;;;;;24.15;21.95;;;;;;;;;;2091473;28;20187;-77
2022/06/24 02:29:52;;;;;;;22.97;20.67;;;;;;;;;;2091105;28;20206;-77
2022/06/24 02:30:58;;;;;;;27.25;20.85;;;;;;;;;;2091591;28;20191;-76
2022/06/24 02:31:59;;;;;;;22.52;20.40;;;;;;;;;;2099407;28;20206;-77
2022/06/24 02:33:01;;;;;;;23.70;21.60;;;;;;;;;;2091777;28;20187;-76
2022/06/24 02:34:01;;;;;;;23.55;21.02;;;;;;;;;;2082913;28;20192;-76
2022/06/24 02:35:02;;;;;;;23.30;21.17;;;;;;;;;;2091168;28;20203;-76
2022/06/24 02:36:03;;;;;;;24.00;21.63;;;;;;;;;;2083108;28;20271;-76
2022/06/24 02:37:06;;;;;;;23.48;21.27;;;;;;;;;;2091346;28;20177;-77
2022/06/24 02:38:08;;;;;;;24.13;21.67;;;;;;;;;;2099771;28;20612;-76
2022/06/24 02:39:12;;;;;;;23.92;21.60;;;;;;;;;;2099084;28;20214;-76
2022/06/24 02:41:32;;;;;;;24.38;22.05;;;;;;;;;;2097243;28;20266;-77
2022/06/24 02:42:33;;;;;;;24.52;22.13;;;;;;;;;;2099574;28;20206;-76
2022/06/24 02:43:35;;;;;;;24.50;21.97;;;;;;;;;;2099315;28;20285;-76
2022/06/24 02:44:36;;;;;;;26.20;22.23;;;;;;;;;;2090998;28;20697;-76
2022/06/24 02:45:39;;;;;;;23.80;21.53;;;;;;;;;;2091068;28;20633;-77
2022/06/24 02:46:40;;;;;;;24.88;22.23;;;;;;;;;;2091023;28;20206;-76
2022/06/24 02:47:41;;;;;;;24.02;21.75;;;;;;;;;;2082809;28;20283;-76
2022/06/24 02:48:43;;;;;;;24.43;21.93;;;;;;;;;;2082707;28;20211;-77
2022/06/24 02:49:43;;;;;;;25.50;22.77;;;;;;;;;;2082822;28;20203;-76
2022/06/24 02:50:46;;;;;;;24.77;22.17;;;;;;;;;;2082849;28;20223;-76
2022/06/24 02:51:49;;;;;;;25.17;22.48;;;;;;;;;;2081304;28;20245;-76
2022/06/24 02:52:53;;;;;;;25.60;22.80;;;;;;;;;;2082976;28;20628;-77
2022/06/24 02:53:55;;;;;;;29.08;22.45;;;;;;;;;;2082985;28;20195;-76
2022/06/24 02:54:57;;;;;;;27.13;22.80;;;;;;;;;;2082701;28;20234;-76
2022/06/24 02:56:00;;;;;;;24.48;22.02;;;;;;;;;;2082794;28;20192;-76
2022/06/24 02:57:01;;;;;;;28.08;22.73;;;;;;;;;;2082879;28;20246;-76
2022/06/24 02:58:04;;;;;;;26.35;22.60;;;;;;;;;;2083238;28;20287;-76
2022/06/24 02:59:07;;;;;;;26.42;23.45;;;;;;;;;;2091416;28;20701;-76
2022/06/24 03:00:09;;;;;;;25.67;22.55;;;;;;;;;;2099221;28;20221;-76
2022/06/24 03:01:11;;;;;;;23.90;21.73;;;;;;;;;;2091037;28;20179;-76
2022/06/24 03:02:11;;;;;;;26.45;21.98;;;;;;;;;;2099650;28;20565;-76
2022/06/24 03:03:13;;;;;;;24.67;22.10;;;;;;;;;;2090936;28;20245;-76
2022/06/24 03:04:14;;;;;;;28.98;22.55;;;;;;;;;;2090957;28;20206;-77
2022/06/24 03:05:19;;;;;;;24.33;22.02;;;;;;;;;;2082797;28;20286;-76
2022/06/24 03:06:22;;;;;;;27.85;23.08;;;;;;;;;;2090383;28;20280;-76
2022/06/24 03:07:22;;;;;;;24.60;22.00;;;;;;;;;;2091034;28;20642;-76
2022/06/24 03:08:25;;;;;;;24.10;21.73;;;;;;;;;;2090895;28;20203;-76
2022/06/24 03:09:25;;;;;;;25.67;22.98;;;;;;;;;;2091140;28;20202;-76
2022/06/24 03:10:28;;;;;;;24.93;22.23;;;;;;;;;;2082620;28;20200;-76
2022/06/24 03:11:28;;;;;;;25.10;22.58;;;;;;;;;;2090940;28;20194;-76
2022/06/24 03:12:30;;;;;;;24.43;21.87;;;;;;;;;;2099713;28;20205;-77
2022/06/24 03:13:32;;;;;;;23.67;21.35;;;;;;;;;;2090846;28;20203;-76
2022/06/24 03:14:32;;;;;;;24.63;22.33;;;;;;;;;;2090812;28;20202;-76
2022/06/24 03:15:34;;;;;;;24.37;22.10;;;;;;;-144.27;100.00;69909.41;2083215;28;20207;-76
2022/06/24 03:16:35;;;;;;;26.10;23.52;;;;;;;;;;2090805;28;20206;-76
2022/06/24 03:17:36;;;;;;;24.65;22.45;;;;;;;;;;2091477;28;20203;-77
2022/06/24 03:18:39;;;;;;;25.17;22.20;;;;;;;;;;2082481;28;20188;-76
2022/06/24 03:19:40;;;;;;;25.33;22.55;;;;;;;;;;2091008;28;20198;-76
2022/06/24 03:20:42;;;;;;;23.87;21.57;;;;;;;;;;2091473;28;20211;-76
2022/06/24 03:21:43;;;;;;;24.27;21.90;;;;;;;;;;2090551;28;20318;-76
2022/06/24 03:22:44;;;;;;;23.93;21.63;;;;;;;;;;2099597;28;20202;-76
2022/06/24 03:23:45;;;;;;;27.95;22.77;;;;;;;;;;2098926;28;20190;-76
2022/06/24 03:24:48;;;;;;;24.23;21.83;;;;;;;;;;2090794;28;20205;-76
2022/06/24 03:25:50;;;;;;;25.70;23.10;;;;;;;;;;2091284;28;20259;-76
2022/06/24 03:26:52;;;;;;;24.95;22.45;;;;;;;;;;2090478;28;20194;-76
2022/06/24 03:27:54;;;;;;;25.08;22.55;;;;;;;;;;2092036;28;20665;-76
2022/06/24 03:28:55;;;;;;;25.23;22.63;;;;;;;;;;2099038;28;20562;-76
2022/06/24 03:29:56;;;;;;;24.90;22.30;;;;;;;;;;2098998;28;20557;-76
2022/06/24 03:30:57;;;;;;;24.87;22.37;;;;;;;;;;2091500;28;20192;-76
2022/06/24 03:31:58;;;;;;;24.90;22.52;;;;;;;;;;2099060;28;20650;-76
2022/06/24 03:33:00;;;;;;;25.53;22.80;;;;;;;;;;2099187;28;20190;-77
2022/06/24 03:34:01;;;;;;;24.58;22.15;;;;;;;;;;2098932;28;20193;-76
2022/06/24 03:35:03;;;;;;;24.73;21.97;;;;;;;;;;2090671;28;20233;-77
2022/06/24 03:36:08;;;;;;;24.33;21.98;;;;;;;;;;2091013;28;20217;-77
2022/06/24 03:37:09;;;;;;;24.55;22.20;;;;;;;;;;2098646;28;20171;-78
2022/06/24 03:38:10;;;;;;;24.55;21.92;;;;;;;;;;2098893;28;20237;-76
2022/06/24 03:39:13;;;;;;;24.90;22.67;;;;;;;-139.06;100.00;91346.41;2099317;28;20209;-76
2022/06/24 03:40:14;;;;;;;25.00;22.55;;;;;;;;;;2090611;28;20206;-76
2022/06/24 03:41:17;;;;;;;25.58;22.83;;;;;;;;;;2082756;28;20191;-76
2022/06/24 03:42:18;;;;;;;26.35;23.60;;;;;;;;;;2090735;28;20230;-77
2022/06/24 03:43:19;;;;;;;25.83;23.17;;;;;;;;;;2098956;28;20672;-77
2022/06/24 03:44:20;;;;;;;28.20;24.10;;;;;;;;;;2091088;28;20293;-77
2022/06/24 03:45:21;;;;;;;26.50;23.67;;;;;;;;;;2090681;28;20191;-76
2022/06/24 03:46:23;;;;;;;26.70;23.90;;;;;;;;;;2091751;28;20187;-76
2022/06/24 03:47:27;;;;;;;27.38;24.52;;;;;;;;;;2099142;28;20608;-76
2022/06/24 03:48:28;;;;;;;26.35;23.65;;;;;;;;;;2098713;28;20194;-77
2022/06/24 03:49:29;;;;;;;29.10;24.30;;;;;;;;;;2091814;28;20187;-76
2022/06/24 03:50:31;;;;;;;26.73;24.02;;;;;;;;;;2098818;28;20202;-76
2022/06/24 03:51:31;;;;;;;28.42;23.65;;;;;;;;;;2099182;28;20301;-76
2022/06/24 03:52:34;;;;;;;27.60;24.67;;;;;;;;;;2091189;28;20202;-76
2022/06/24 03:53:36;;;;;;;26.42;23.85;;;;;;;22.41;79.28;94170.28;2090561;28;20669;-76
2022/06/24 03:54:38;;;;;;;27.17;24.27;;;;;;;-144.27;100.00;91518.75;2091187;28;20581;-76
2022/06/24 03:55:40;;;;;;;27.50;24.67;;;;;;;;;;2098834;28;20190;-76
2022/06/24 03:56:43;;;;;;;27.52;24.33;;;;;;;;;;2091016;28;20214;-77
2022/06/24 03:57:44;;;;;;;26.70;23.70;;;;;;;;;;2090700;28;20235;-76
2022/06/24 03:58:45;;;;;;;28.38;24.42;;;;;;;22.40;100.00;57455.84;2082218;28;20261;-76
2022/06/24 03:59:47;;;;;;;26.60;23.90;;;;;;;;;;2082718;28;20211;-76
2022/06/24 04:00:49;;;;;;;25.73;23.35;;;;;;;;;;2090816;28;20195;-76
2022/06/24 04:01:50;;;;;;;26.02;23.30;;;;;;;;;;2091177;28;20198;-76
2022/06/24 04:02:51;;;;;;;25.40;22.90;;;;;;;;;;2091759;28;20187;-76
2022/06/24 04:03:52;;;;;;;25.77;23.38;;;;;;;-144.27;100.00;69759.91;2090439;28;20532;-77
2022/06/24 04:04:54;;;;;;;25.90;23.30;;;;;;;-144.27;100.00;69759.91;2091351;28;20322;-76
2022/06/24 04:05:55;;;;;;;25.40;22.85;;;;;;;189.37;100.00;91426.84;2090712;28;20191;-77
2022/06/24 04:06:56;;;;;;;25.90;22.80;;;;;;;23.70;100.00;59505.97;2090429;28;20289;-77
2022/06/24 04:07:58;;;;;;;25.85;22.77;;;;;;;;;;2082776;28;20745;-77
2022/06/24 04:09:01;;;;;;;25.35;22.98;;;;;;;23.70;100.00;93958.72;2090620;28;20270;-77
2022/06/24 04:10:03;;;;;;;25.20;22.67;;;;;;;22.56;100.00;69759.91;2090975;28;20559;-77
2022/06/24 04:11:07;;;;;;;24.80;22.27;;;;;;;;;;2082128;28;20714;-77
2022/06/24 04:12:12;;;;;;;24.35;21.95;;;;;;;22.72;100.00;70059.25;2090564;28;20183;-77
2022/06/24 04:13:13;;;;;;;26.00;22.92;;;;;;;;;;2091736;28;20237;-76
2022/06/24 04:15:13;;;;;;;24.60;21.47;;;;;;;23.70;100.00;70359.91;2091053;28;20195;-76
2022/06/24 04:15:37;;;;;;;24.42;21.88;;;;;;;-144.27;100.00;69759.91;2091415;28;20548;-76
2022/06/24 04:16:40;;;;;;;23.88;21.58;;;;;;;189.37;100.00;91518.75;2089782;28;20237;-76
2022/06/24 04:17:41;;;;;;;23.92;21.65;;;;;;;43.25;100.00;94289.88;2090825;28;20195;-77
2022/06/24 04:18:43;;;;;;;23.35;21.13;;;;;;;-144.27;100.00;69759.91;2098535;28;20259;-77
2022/06/24 04:19:43;;;;;;;23.15;20.77;;;;;;;;;;2098744;28;20237;-76
2022/06/24 04:20:45;;;;;;;23.77;21.20;;;;;;;;;;2090833;28;20199;-76
2022/06/24 04:21:47;;;;;;;22.50;20.30;;;;;;;-144.27;100.00;70359.91;2089969;28;20226;-77
2022/06/24 04:22:49;;;;;;;24.10;21.55;;;;;;;22.56;100.00;69759.91;2091200;28;20191;-77
2022/06/24 04:23:50;;;;;;;23.90;21.67;;;;;;;-144.27;100.00;69759.91;2099139;28;20202;-76
2022/06/24 04:24:51;;;;;;;24.20;21.90;;;;;;;-144.27;100.00;69759.91;2098738;28;20190;-76
2022/06/24 04:25:53;;;;;;;23.35;21.27;;;;;;;-144.27;100.00;69759.91;2090881;28;20191;-76
2022/06/24 04:26:54;;;;;;;23.75;21.55;;;;;;;27.61;85.72;69759.91;2090353;28;20223;-77
2022/06/24 04:27:57;;;;;;;23.63;21.33;;;;;;;43.25;100.00;93303.69;2090918;28;20187;-77
2022/06/24 04:28:58;;;;;;;22.67;20.60;;;;;;;-144.27;100.00;69759.91;2090204;28;20191;-76
2022/06/24 04:30:01;;;;;;;23.20;21.00;;;;;;;-144.27;100.00;69759.91;2090295;28;20183;-77
2022/06/24 04:31:02;;;;;;;23.70;21.45;;;;;;;43.25;100.00;92070.91;2098480;28;20198;-76
2022/06/24 04:32:04;;;;;;;23.10;21.00;;;;;;;32.82;100.00;70359.91;2090460;28;20205;-76
2022/06/24 04:33:05;;;;;;;25.02;22.25;;;;;;;-144.27;100.00;79980.31;2090187;28;20644;-76
2022/06/24 04:34:06;;;;;;;25.23;22.37;;;;;;;43.25;100.00;97265.38;2090395;28;20206;-76
2022/06/24 04:35:07;;;;;;;23.03;21.03;;;;;;;;;;2090170;28;20202;-76
2022/06/24 04:36:13;;;;;;;24.50;22.10;;;;;;;23.05;100.00;69759.91;2089641;28;20440;-76
2022/06/24 04:37:13;;;;;;;24.13;21.95;;;;;;;-144.27;100.00;69759.91;2090043;28;20204;-77
2022/06/24 04:38:15;;;;;;;22.87;20.67;;;;;;;64.11;100.00;94289.88;2081831;28;20206;-76
2022/06/24 04:39:15;;;;;;;23.03;20.77;;;;;;;189.37;89.01;91518.75;2081367;28;20203;-76
2022/06/24 04:40:17;;;;;;;23.03;20.83;;;;;;;23.70;100.00;69759.91;2081921;28;20534;-76
2022/06/24 04:41:18;;;;;;;22.85;20.75;;;;;;;43.25;100.00;94289.88;2082211;28;20600;-76
2022/06/24 04:42:20;;;;;;;22.33;20.07;;;;;;;;;;2089427;28;20277;-76
2022/06/24 04:43:24;;;;;;;21.40;19.60;;;;;;;;;;2098319;28;20194;-76
2022/06/24 04:44:26;;;;;;;22.50;20.10;;;;;;;-144.27;100.00;72191.72;2098903;28;20437;-76
2022/06/24 04:45:26;;;;;;;22.30;20.35;;;;;;;-144.27;100.00;69759.91;2098674;28;20664;-76
2022/06/24 04:46:28;;;;;;;22.27;20.27;;;;;;;25.00;100.00;69759.91;2098388;28;20645;-76
2022/06/24 04:47:28;;;;;;;21.77;19.73;;;;;;;-144.27;100.00;69759.91;2098856;28;20225;-77
2022/06/24 04:48:32;;;;;;;22.30;20.13;;;;;;;-144.27;100.00;79980.31;2090786;28;20194;-76
2022/06/24 04:49:35;;;;;;;21.23;19.42;;;;;;;-144.27;100.00;69759.91;2098822;28;20194;-77
2022/06/24 04:50:38;;;;;;;21.43;19.57;;;;;;;-144.27;100.00;69759.91;2098170;28;20190;-77
2022/06/24 04:51:39;;;;;;;21.93;19.87;;;;;;;64.11;100.00;92070.91;2090489;28;20540;-77
2022/06/24 04:52:41;;;;;;;22.30;20.20;;;;;;;;;;2091094;28;20434;-76
2022/06/24 04:53:41;;;;;;;21.70;19.83;;;;;;;-144.27;100.00;69759.91;2098264;28;20264;-76
2022/06/24 04:54:43;;;;;;;21.70;19.73;;;;;;;-144.27;100.00;69759.91;2098936;28;20517;-76
2022/06/24 04:55:44;;;;;;;22.03;20.13;;;;;;;;;;2090949;28;20210;-76
2022/06/24 04:56:45;;;;;;;21.47;19.47;;;;;;;32.82;100.00;69759.91;2090632;28;20528;-76
2022/06/24 04:57:47;;;;;;;21.43;19.73;;;;;;;-144.27;100.00;69759.91;2099185;28;20243;-76
2022/06/24 04:58:50;;;;;;;22.27;20.47;;;;;;;-144.27;90.99;72191.72;2098411;28;20433;-76
2022/06/24 04:59:52;;;;;;;21.20;19.50;;;;;;;189.37;100.00;91518.75;2098459;28;20533;-77
2022/06/24 05:00:52;;;;;;;21.73;19.70;;;;;;;;;;2089961;28;20456;-76
2022/06/24 05:01:54;;;;;;;22.33;20.23;;;;;;;25.00;85.72;69759.91;2090076;28;20925;-77
2022/06/24 05:02:55;;;;;;;22.00;19.90;;;;;;;105.84;100.00;92070.91;2089957;28;20673;-77
2022/06/24 05:04:00;;;;;;;22.33;19.77;;;;;;;105.84;100.00;91518.75;2081779;28;20510;-76
2022/06/24 05:05:02;;;;;;;21.40;19.60;;;;;;;25.00;100.00;69759.91;2082029;28;20450;-77
2022/06/24 05:06:04;;;;;;;20.93;19.13;;;;;;;23.05;100.00;57715.66;2089400;28;20540;-77
2022/06/24 05:07:06;;;;;;;21.03;19.27;;;;;;;23.70;100.00;70965.22;2090132;28;20443;-76
2022/06/24 05:08:07;;;;;;;21.40;19.60;;;;;;;32.82;100.00;69759.91;2098108;28;20553;-76
2022/06/24 05:09:10;;;;;;;21.10;19.17;;;;;;;23.05;100.00;69759.91;2098277;28;20470;-77
2022/06/24 05:10:11;;;;;;;21.23;19.37;;;;;;;;;;2098173;28;20198;-76
2022/06/24 05:11:13;;;;;;;21.80;19.30;;;;;;;27.61;100.00;69759.91;2089874;28;20445;-76
2022/06/24 05:12:18;;;;;;;20.93;19.13;;;;;;;;;;2089850;28;20445;-77
2022/06/24 05:13:19;;;;;;;21.67;19.73;;;;;;;;;;2090155;28;20445;-76
2022/06/24 05:14:21;;;;;;;21.27;19.47;;;;;;;-144.27;100.00;69759.91;2090129;28;20477;-76
2022/06/24 05:15:22;;;;;;;22.67;20.43;;;;;;;;;;2089937;28;20785;-76
2022/06/24 05:16:23;;;;;;;21.97;20.13;;;;;;;25.00;100.00;69759.91;2098720;28;20433;-76
2022/06/24 05:17:26;;;;;;;22.13;20.37;;;;;;;;;;2090764;28;20426;-77
2022/06/24 05:18:29;;;;;;;23.40;21.00;;;;;;;64.11;100.00;92070.91;2098866;28;20202;-76
2022/06/24 05:19:34;;;;;;;23.00;20.80;;;;;;;-144.27;100.00;69759.91;2097748;28;20444;-76
2022/06/24 05:20:35;;;;;;;23.93;21.47;;;;;;;-144.27;100.00;69759.91;2090517;28;20472;-76
2022/06/24 05:21:37;;;;;;;21.90;19.80;;;;;;;-144.27;100.00;69759.91;2098188;28;20465;-77
2022/06/24 05:22:38;;;;;;;22.03;20.07;;;;;;;-144.27;100.00;69759.91;2098103;28;20190;-76
2022/06/24 05:23:40;;;;;;;22.07;19.93;;;;;;;-144.27;100.00;69759.91;2098668;28;20444;-76
2022/06/24 05:24:42;;;;;;;21.23;19.57;;;;;;;-144.27;100.00;69759.91;2089783;28;20441;-77
2022/06/24 05:25:43;;;;;;;22.27;20.03;;;;;;;-144.27;100.00;69759.91;2090012;28;20426;-77
2022/06/24 05:26:45;;;;;;;21.80;20.00;;;;;;;-144.27;100.00;69759.91;2091154;28;20441;-76
2022/06/24 05:27:47;;;;;;;22.47;20.20;;;;;;;;;;2090472;28;20418;-76
2022/06/24 05:28:47;;;;;;;21.60;19.67;;;;;;;-144.27;100.00;69759.91;2091046;28;20466;-76
2022/06/24 05:29:50;;;;;;;20.83;19.13;;;;;;;-144.27;100.00;69759.91;2098077;28;20479;-76
2022/06/24 05:30:55;;;;;;;21.80;19.80;;;;;;;-144.27;100.00;69759.91;2098282;28;20572;-76
2022/06/24 05:31:56;;;;;;;21.63;19.63;;;;;;;;;;2098615;28;20441;-76
2022/06/24 05:32:57;;;;;;;22.33;20.43;;;;;;;-144.27;100.00;69759.91;2089699;28;20524;-76
2022/06/24 05:33:59;;;;;;;22.23;20.00;;;;;;;23.70;100.00;69759.91;2090405;28;20426;-76
2022/06/24 05:34:59;;;;;;;21.23;19.23;;;;;;;23.70;100.00;69759.91;2090486;28;20226;-76
2022/06/24 05:36:01;;;;;;;20.83;19.10;;;;;;;;;;2097729;28;20943;-76
2022/06/24 05:37:02;;;;;;;20.80;18.70;;;;;;;-144.27;100.00;74707.59;2099036;28;20167;-76
2022/06/24 05:38:07;;;;;;;22.50;20.50;;;;;;;-144.27;100.00;69759.91;2097874;28;20479;-76